Time;durP1;ratioP1;P1;durP2;ratioP2;P2;SDS_P1;SDS_P2;PMS_P1;PMS_P2;Temp;Humidity;BMP_temperature;BMP_pressure;BME280_temperature;BME280_humidity;BME280_pressure;Samples;Min_cycle;Max_cycle;Signal;HPM_P1;HPM_P2
2020/12/28 00:01:03;;;;;;;1.70;1.25;;;5.20;99.90;;;;;;4936286;29;20189;-84
2020/12/28 00:03:29;;;;;;;1.25;1.15;;;5.40;99.90;;;;;;4936540;29;20192;-84
2020/12/28 00:05:55;;;;;;;2.60;1.10;;;5.20;99.90;;;;;;4933610;29;20284;-83
2020/12/28 00:08:21;;;;;;;1.83;1.50;;;5.10;99.90;;;;;;4948606;29;20433;-85
2020/12/28 00:10:46;;;;;;;3.20;1.05;;;5.10;99.90;;;;;;4963282;28;20491;-85
2020/12/28 00:13:13;;;;;;;1.20;1.10;;;5.10;99.90;;;;;;4952264;29;20219;-84
2020/12/28 00:15:41;;;;;;;1.30;1.20;;;5.10;99.90;;;;;;4936860;29;20883;-84
2020/12/28 00:18:09;;;;;;;2.10;1.00;;;5.10;99.90;;;;;;4938261;29;20224;-84
2020/12/28 00:20:35;;;;;;;1.70;1.40;;;5.00;99.90;;;;;;4920969;29;20199;-84
2020/12/28 00:23:06;;;;;;;1.20;1.00;;;5.20;99.90;;;;;;4938260;29;20200;-85
2020/12/28 00:25:32;;;;;;;1.48;1.05;;;5.10;99.90;;;;;;4937603;29;20184;-84
2020/12/28 00:27:57;;;;;;;1.20;1.00;;;5.00;99.90;;;;;;4936250;29;20243;-85
2020/12/28 00:30:24;;;;;;;1.40;1.03;;;5.10;99.90;;;;;;4952607;29;20463;-85
2020/12/28 00:32:49;;;;;;;1.70;1.20;;;5.10;99.90;;;;;;4952643;28;20451;-84
2020/12/28 00:35:18;;;;;;;1.33;0.97;;;5.10;99.90;;;;;;4969241;28;20189;-85
2020/12/28 00:37:46;;;;;;;1.20;1.00;;;5.00;99.90;;;;;;4937332;29;20932;-84
2020/12/28 00:40:13;;;;;;;1.35;1.00;;;5.00;99.90;;;;;;4954872;28;20189;-84
2020/12/28 00:42:44;;;;;;;3.42;1.60;;;5.00;99.90;;;;;;4968813;28;20267;-84
2020/12/28 00:45:12;;;;;;;1.30;1.20;;;5.00;99.90;;;;;;4967815;28;20208;-84
2020/12/28 00:47:40;;;;;;;1.90;1.27;;;5.00;99.90;;;;;;4935681;29;20263;-84
2020/12/28 00:50:06;;;;;;;1.00;0.77;;;5.00;99.90;;;;;;4939944;29;20506;-85
2020/12/28 00:52:58;;;;;;;1.20;1.10;;;5.00;99.90;;;;;;4933915;28;20631;-85
2020/12/28 00:55:35;;;;;;;1.60;0.98;;;4.90;99.90;;;;;;4952438;28;20180;-83
2020/12/28 00:58:07;;;;;;;1.10;0.95;;;5.00;99.90;;;;;;4949478;29;20296;-84
2020/12/28 01:00:39;;;;;;;0.95;0.85;;;5.00;99.90;;;;;;4952310;29;20189;-85
2020/12/28 01:03:09;;;;;;;4.25;2.25;;;4.90;99.90;;;;;;4965173;28;20186;-83
2020/12/28 01:05:54;;;;;;;2.00;1.30;;;5.00;99.90;;;;;;4962626;28;20176;-84
2020/12/28 01:08:23;;;;;;;1.75;1.00;;;5.00;99.90;;;;;;4948525;28;20196;-84
2020/12/28 01:10:50;;;;;;;3.20;1.73;;;4.80;99.90;;;;;;4952445;29;20280;-84
2020/12/28 01:13:16;;;;;;;1.25;1.02;;;5.10;99.90;;;;;;4943715;29;20210;-85
2020/12/28 01:15:50;;;;;;;1.48;1.10;;;4.90;99.90;;;;;;4935690;29;20247;-86
2020/12/28 01:18:21;;;;;;;1.15;0.95;;;5.00;99.90;;;;;;4936574;28;20267;-84
2020/12/28 01:20:55;;;;;;;4.28;2.13;;;5.20;99.90;;;;;;4920786;29;20276;-84
2020/12/28 01:23:21;;;;;;;1.45;1.10;;;5.10;99.90;;;;;;4951572;29;20181;-85
2020/12/28 01:26:02;;;;;;;2.90;1.80;;;4.90;99.90;;;;;;4934236;29;20200;-84
2020/12/28 01:28:35;;;;;;;5.50;1.80;;;4.90;99.90;;;;;;4937411;29;20180;-85
2020/12/28 01:31:01;;;;;;;3.20;1.80;;;4.90;99.90;;;;;;4920072;29;20181;-85
2020/12/28 01:33:45;;;;;;;4.03;1.60;;;4.90;99.90;;;;;;4933062;29;20204;-86
2020/12/28 01:36:17;;;;;;;2.60;1.55;;;4.80;99.90;;;;;;4964277;28;20196;-86
2020/12/28 01:38:48;;;;;;;2.53;1.70;;;4.70;99.90;;;;;;4951419;29;20181;-85
2020/12/28 01:41:15;;;;;;;2.10;1.60;;;4.70;99.90;;;;;;4942114;29;20503;-84
2020/12/28 01:43:45;;;;;;;3.30;1.70;;;4.70;99.90;;;;;;4935568;29;20200;-85
2020/12/28 01:46:12;;;;;;;3.10;1.70;;;4.60;99.90;;;;;;4945359;28;20200;-85
2020/12/28 01:48:42;;;;;;;4.07;1.75;;;4.50;99.90;;;;;;4946334;29;20240;-85
2020/12/28 01:51:13;;;;;;;3.33;1.67;;;4.50;99.90;;;;;;4950906;29;20670;-85
2020/12/28 01:54:07;;;;;;;2.08;1.27;;;4.50;99.90;;;;;;4935758;29;20363;-86
2020/12/28 01:56:43;;;;;;;2.22;1.45;;;4.50;99.90;;;;;;4947768;29;20177;-86
2020/12/28 01:59:15;;;;;;;2.38;1.30;;;4.50;99.90;;;;;;4935050;29;20264;-85
2020/12/28 02:01:53;;;;;;;1.40;1.17;;;4.50;99.90;;;;;;4951639;29;20184;-85
2020/12/28 02:04:22;;;;;;;1.33;1.10;;;4.00;99.90;;;;;;4921200;29;20203;-85
2020/12/28 02:07:04;;;;;;;1.17;1.08;;;4.50;99.90;;;;;;4963128;28;20204;-85
2020/12/28 02:09:31;;;;;;;1.13;1.02;;;4.40;99.90;;;;;;4940952;29;20211;-85
2020/12/28 02:11:57;;;;;;;1.10;0.88;;;4.50;99.90;;;;;;4949240;28;20597;-85
2020/12/28 02:14:26;;;;;;;1.13;0.85;;;4.50;99.90;;;;;;4951031;29;20269;-85
2020/12/28 02:16:57;;;;;;;1.65;1.10;;;4.50;99.90;;;;;;4935686;29;21473;-85
2020/12/28 02:19:27;;;;;;;1.15;0.95;;;4.60;99.90;;;;;;4952799;29;20221;-92
2020/12/28 02:21:58;;;;;;;1.33;0.93;;;4.60;99.90;;;;;;4964379;28;20189;-92
2020/12/28 02:24:31;;;;;;;2.25;1.00;;;4.60;99.90;;;;;;4953686;29;20206;-92
2020/12/28 02:27:02;;;;;;;1.30;1.00;;;4.80;99.90;;;;;;4952498;29;20211;-92
2020/12/28 02:29:29;;;;;;;1.02;0.93;;;4.70;99.90;;;;;;4934482;29;20201;-92
2020/12/28 02:31:59;;;;;;;1.40;1.17;;;4.70;99.90;;;;;;4919073;29;20189;-92
2020/12/28 02:34:40;;;;;;;1.23;1.08;;;4.80;99.90;;;;;;4938844;29;20209;-92
2020/12/28 02:37:13;;;;;;;1.83;1.10;;;4.70;99.90;;;;;;4953476;29;20235;-93
2020/12/28 02:39:55;;;;;;;1.20;0.80;;;4.70;99.90;;;;;;4953152;29;20646;-91
2020/12/28 02:42:25;;;;;;;1.38;0.93;;;4.70;99.90;;;;;;4905975;29;20239;-91
2020/12/28 02:45:10;;;;;;;1.30;0.88;;;4.80;99.90;;;;;;4937902;29;20240;-92
2020/12/28 02:47:57;;;;;;;1.95;0.80;;;4.90;99.90;;;;;;4950497;29;20184;-91
2020/12/28 02:50:46;;;;;;;1.73;0.95;;;4.90;99.90;;;;;;4938407;29;20176;-92
2020/12/28 02:53:30;;;;;;;3.95;0.88;;;4.90;99.90;;;;;;4951220;29;20527;-91
2020/12/28 02:56:14;;;;;;;1.02;0.90;;;5.00;99.90;;;;;;4937622;29;20194;-92
2020/12/28 02:58:59;;;;;;;1.15;0.90;;;5.00;99.90;;;;;;4937626;29;20177;-92
2020/12/28 03:01:43;;;;;;;1.85;1.25;;;4.90;99.90;;;;;;4937169;29;20618;-92
2020/12/28 03:04:28;;;;;;;1.75;1.13;;;5.00;99.90;;;;;;4918911;29;20280;-91
2020/12/28 03:07:12;;;;;;;1.65;0.93;;;5.00;99.90;;;;;;4931792;29;20228;-92
2020/12/28 03:10:02;;;;;;;1.73;1.05;;;5.00;99.90;;;;;;4954390;28;20196;-93
2020/12/28 03:12:47;;;;;;;1.15;0.95;;;5.00;99.90;;;;;;4937056;29;20185;-93
2020/12/28 03:15:31;;;;;;;1.25;1.00;;;5.00;99.90;;;;;;4937800;29;20204;-92
2020/12/28 03:18:16;;;;;;;1.67;1.00;;;5.00;99.90;;;;;;4937722;29;20256;-92
2020/12/28 03:21:00;;;;;;;1.55;1.20;;;5.00;99.90;;;;;;4938003;29;20184;-93
2020/12/28 03:23:45;;;;;;;2.00;1.23;;;5.10;99.90;;;;;;4923665;29;20293;-93
2020/12/28 03:26:29;;;;;;;1.20;1.10;;;5.00;99.90;;;;;;4937798;29;20177;-92
2020/12/28 03:29:16;;;;;;;1.33;1.00;;;5.20;99.90;;;;;;4937807;29;20202;-92
2020/12/28 03:32:01;;;;;;;1.55;1.10;;;4.90;99.90;;;;;;4938021;29;20191;-92
2020/12/28 03:34:45;;;;;;;1.10;0.90;;;5.10;99.90;;;;;;4941245;29;20196;-93
2020/12/28 03:37:30;;;;;;;3.65;1.00;;;5.00;99.90;;;;;;4940741;29;20622;-93
2020/12/28 03:40:14;;;;;;;2.85;1.08;;;5.00;99.90;;;;;;4940743;29;20177;-93
2020/12/28 03:42:59;;;;;;;2.35;0.98;;;5.00;99.90;;;;;;4941329;29;20324;-94
2020/12/28 03:45:46;;;;;;;1.67;1.58;;;5.00;99.90;;;;;;4921222;29;20252;-94
2020/12/28 03:48:47;;;;;;;1.08;0.90;;;5.00;99.90;;;;;;4958682;29;20187;-93
2020/12/28 03:51:34;;;;;;;1.75;1.10;;;5.00;99.90;;;;;;4924993;29;20264;-92
2020/12/28 03:54:19;;;;;;;3.53;1.17;;;5.00;99.90;;;;;;4922099;29;20225;-93
2020/12/28 03:57:03;;;;;;;1.50;1.23;;;5.10;99.90;;;;;;4953181;29;20606;-93
2020/12/28 03:59:47;;;;;;;1.77;1.05;;;5.10;99.90;;;;;;4940779;29;20205;-93
2020/12/28 04:02:32;;;;;;;1.95;1.10;;;5.10;99.90;;;;;;4939956;29;20186;-91
2020/12/28 04:05:17;;;;;;;1.50;0.90;;;5.10;99.90;;;;;;4953713;29;20204;-93
2020/12/28 04:08:15;;;;;;;2.05;1.10;;;5.10;99.90;;;;;;4929481;29;20220;-92
2020/12/28 04:11:07;;;;;;;1.27;0.80;;;5.10;99.90;;;;;;4940060;29;20211;-94
2020/12/28 04:13:51;;;;;;;1.50;1.20;;;5.10;99.90;;;;;;4940169;29;20557;-94
2020/12/28 04:16:22;;;;;;;0.95;0.80;;;5.10;99.90;;;;;;4950367;28;20310;-94
2020/12/28 04:18:48;;;;;;;1.25;0.90;;;5.10;99.90;;;;;;4959196;29;20179;-95
2020/12/28 04:21:14;;;;;;;1.47;1.07;;;5.10;99.90;;;;;;4944876;28;20181;-95
2020/12/28 04:23:39;;;;;;;2.70;1.20;;;5.00;99.90;;;;;;4959125;29;20442;-95
2020/12/28 04:26:05;;;;;;;1.67;1.10;;;5.10;99.90;;;;;;4960025;28;20440;-93
2020/12/28 04:28:32;;;;;;;1.30;1.20;;;5.10;99.90;;;;;;4939709;29;20428;-94
2020/12/28 04:30:58;;;;;;;1.65;1.55;;;5.10;99.90;;;;;;4939884;29;20519;-94
2020/12/28 04:33:24;;;;;;;2.10;1.50;;;5.10;99.90;;;;;;4955192;29;20284;-94
2020/12/28 04:35:50;;;;;;;1.60;1.35;;;5.10;99.90;;;;;;4940589;29;20443;-95
2020/12/28 04:38:16;;;;;;;1.80;1.23;;;5.10;99.90;;;;;;4939772;29;20184;-94
2020/12/28 04:40:46;;;;;;;1.30;1.20;;;4.90;99.90;;;;;;4940295;29;20206;-94
2020/12/28 04:43:13;;;;;;;1.25;1.15;;;5.20;99.90;;;;;;4939536;29;20452;-94
2020/12/28 04:45:43;;;;;;;1.67;1.30;;;5.20;99.90;;;;;;4955621;29;20243;-95
2020/12/28 04:48:13;;;;;;;1.92;1.38;;;5.20;99.90;;;;;;4958714;28;20190;-94
2020/12/28 04:50:40;;;;;;;1.65;1.38;;;5.30;99.90;;;;;;4959309;28;20196;-95
2020/12/28 04:53:07;;;;;;;2.75;1.48;;;5.30;99.90;;;;;;4958858;29;20659;-95
2020/12/28 04:55:35;;;;;;;2.17;1.30;;;5.30;99.90;;;;;;4974026;28;20191;-94
2020/12/28 04:58:00;;;;;;;2.20;1.50;;;5.30;99.90;;;;;;4974822;28;20187;-94
2020/12/28 05:00:29;;;;;;;5.22;1.30;;;5.30;99.90;;;;;;4929865;29;20440;-94
2020/12/28 05:02:55;;;;;;;1.80;1.23;;;5.30;99.90;;;;;;4955111;28;20279;-95
2020/12/28 05:05:21;;;;;;;2.13;1.37;;;5.30;99.90;;;;;;4939749;29;20431;-94
2020/12/28 05:07:50;;;;;;;1.90;1.70;;;5.30;99.90;;;;;;4939038;29;20444;-95
2020/12/28 05:10:26;;;;;;;5.43;1.48;;;5.20;99.90;;;;;;4922447;29;20437;-95
2020/12/28 05:12:52;;;;;;;1.85;1.40;;;5.20;99.90;;;;;;4954145;29;20181;-94
2020/12/28 05:15:23;;;;;;;2.33;1.45;;;5.20;99.90;;;;;;4938921;29;20275;-95
2020/12/28 05:17:55;;;;;;;1.95;1.58;;;5.20;99.90;;;;;;4939270;29;20582;-94
2020/12/28 05:20:25;;;;;;;1.30;1.20;;;5.20;99.90;;;;;;4938603;29;20195;-94
2020/12/28 05:22:54;;;;;;;1.65;1.42;;;5.20;99.90;;;;;;4940078;29;20191;-94
2020/12/28 05:25:22;;;;;;;1.80;1.40;;;5.30;99.90;;;;;;4955321;29;20509;-94
2020/12/28 05:27:49;;;;;;;2.25;1.48;;;5.30;99.90;;;;;;4954946;29;20268;-94
2020/12/28 05:30:21;;;;;;;1.42;1.25;;;5.30;99.90;;;;;;4937020;29;20200;-93
2020/12/28 05:32:51;;;;;;;1.45;1.35;;;5.30;99.90;;;;;;4936007;29;20177;-94
2020/12/28 05:35:22;;;;;;;2.40;1.50;;;5.30;99.90;;;;;;4939059;29;20188;-96
2020/12/28 05:37:50;;;;;;;3.20;1.83;;;5.30;99.90;;;;;;4955221;29;20224;-95
2020/12/28 05:40:17;;;;;;;1.83;1.60;;;5.30;99.90;;;;;;4943437;29;20260;-95
2020/12/28 05:42:50;;;;;;;2.22;1.52;;;5.30;99.90;;;;;;4941959;28;20513;-95
2020/12/28 05:45:19;;;;;;;2.20;1.58;;;5.20;99.90;;;;;;4923280;29;20219;-95
2020/12/28 05:47:50;;;;;;;1.52;1.42;;;5.20;99.90;;;;;;4938273;29;20184;-92
2020/12/28 05:50:53;;;;;;;2.30;1.55;;;5.10;99.90;;;;;;4953954;29;20167;-91
2020/12/28 05:53:25;;;;;;;1.30;1.20;;;5.10;99.90;;;;;;4953998;29;20212;-92
2020/12/28 05:55:52;;;;;;;2.05;1.73;;;5.00;99.90;;;;;;4940465;29;20188;-94
2020/12/28 05:58:22;;;;;;;2.65;1.80;;;5.00;99.90;;;;;;4958040;28;20180;-92
2020/12/28 06:00:53;;;;;;;2.08;1.85;;;5.00;99.90;;;;;;4957730;29;20199;-93
2020/12/28 06:03:31;;;;;;;2.13;1.70;;;4.90;99.90;;;;;;4973668;28;20202;-92
2020/12/28 06:06:00;;;;;;;2.17;1.60;;;4.90;99.90;;;;;;4958120;28;20182;-93
2020/12/28 06:08:28;;;;;;;2.00;1.80;;;4.60;99.90;;;;;;4941189;29;20646;-93
2020/12/28 06:10:55;;;;;;;3.38;1.50;;;4.60;99.90;;;;;;4940648;28;20271;-93
2020/12/28 06:13:25;;;;;;;2.33;1.90;;;4.80;99.90;;;;;;4953894;28;20339;-92
2020/12/28 06:16:06;;;;;;;2.70;1.70;;;4.50;99.90;;;;;;4953587;28;20527;-92
2020/12/28 06:18:32;;;;;;;2.20;1.77;;;4.50;99.90;;;;;;4954163;29;20185;-92
2020/12/28 06:21:10;;;;;;;2.70;2.00;;;4.50;99.90;;;;;;4953774;29;20188;-92
2020/12/28 06:23:38;;;;;;;4.85;2.75;;;4.40;99.90;;;;;;4928702;29;20485;-92
2020/12/28 06:26:04;;;;;;;3.65;1.95;;;4.50;99.90;;;;;;4950624;29;20220;-92
2020/12/28 06:28:30;;;;;;;2.67;1.60;;;4.50;99.90;;;;;;4919412;29;20193;-92
2020/12/28 06:31:08;;;;;;;3.08;2.40;;;4.50;99.90;;;;;;4937259;29;20487;-92
2020/12/28 06:33:46;;;;;;;2.65;1.70;;;4.50;99.90;;;;;;4922028;29;20208;-93
2020/12/28 06:36:16;;;;;;;2.63;2.28;;;4.50;99.90;;;;;;4937882;29;20247;-92
2020/12/28 06:39:04;;;;;;;2.17;1.65;;;4.50;99.90;;;;;;4937649;29;20614;-93
2020/12/28 06:41:31;;;;;;;2.00;1.80;;;4.70;99.90;;;;;;4953479;29;20595;-92
2020/12/28 06:44:01;;;;;;;2.65;1.65;;;4.50;99.90;;;;;;4953278;28;20540;-91
2020/12/28 06:46:28;;;;;;;2.50;2.00;;;4.60;99.90;;;;;;4937805;29;20173;-90
2020/12/28 06:48:58;;;;;;;2.75;1.88;;;4.60;99.90;;;;;;4955881;28;20185;-91
2020/12/28 06:51:24;;;;;;;2.80;2.03;;;4.70;99.90;;;;;;4919134;29;20197;-92
2020/12/28 06:53:54;;;;;;;3.50;1.80;;;4.70;99.90;;;;;;4951434;29;20255;-91
2020/12/28 06:56:26;;;;;;;3.05;2.00;;;4.70;99.90;;;;;;4922117;29;20184;-93
2020/12/28 06:59:01;;;;;;;2.58;1.75;;;4.70;99.90;;;;;;4969333;28;20552;-92
2020/12/28 07:01:29;;;;;;;2.22;1.38;;;4.80;99.90;;;;;;4953659;29;20183;-92
2020/12/28 07:03:56;;;;;;;1.40;1.30;;;4.80;99.90;;;;;;4969446;28;20200;-91
2020/12/28 07:06:24;;;;;;;2.35;1.60;;;4.80;99.90;;;;;;4938792;29;20196;-90
2020/12/28 07:08:52;;;;;;;2.23;1.43;;;4.80;99.90;;;;;;4957029;29;20185;-90
2020/12/28 07:11:18;;;;;;;6.30;1.63;;;4.80;99.90;;;;;;4956872;29;20440;-90
2020/12/28 07:13:48;;;;;;;3.85;1.67;;;4.80;99.90;;;;;;4956727;28;20274;-90
2020/12/28 07:16:14;;;;;;;2.20;1.80;;;4.80;99.90;;;;;;4941584;29;20224;-90
2020/12/28 07:18:42;;;;;;;4.00;1.85;;;4.90;99.90;;;;;;4930995;29;20203;-90
2020/12/28 07:21:08;;;;;;;2.90;2.17;;;5.00;99.90;;;;;;4936757;29;20185;-90
2020/12/28 07:23:37;;;;;;;4.60;3.20;;;4.90;99.90;;;;;;4949551;28;20898;-89
2020/12/28 07:26:08;;;;;;;4.47;2.20;;;5.00;99.90;;;;;;4972697;28;20184;-90
2020/12/28 07:28:39;;;;;;;4.45;1.98;;;4.80;99.90;;;;;;4956446;29;20172;-89
2020/12/28 07:31:06;;;;;;;2.45;1.88;;;4.80;99.90;;;;;;4956815;29;20188;-89
2020/12/28 07:33:45;;;;;;;2.55;1.55;;;5.00;99.90;;;;;;4944126;29;20268;-89
2020/12/28 07:36:15;;;;;;;2.97;1.40;;;4.80;99.90;;;;;;4953538;29;20177;-90
2020/12/28 07:38:46;;;;;;;1.63;1.50;;;4.60;99.90;;;;;;4921282;29;20200;-88
2020/12/28 07:41:15;;;;;;;2.75;1.30;;;4.50;99.90;;;;;;4921376;29;20180;-89
2020/12/28 07:44:11;;;;;;;2.20;1.73;;;4.90;99.90;;;;;;4953009;29;20181;-89
2020/12/28 07:46:54;;;;;;;1.67;1.58;;;4.90;99.90;;;;;;4943891;29;20219;-90
2020/12/28 07:49:24;;;;;;;1.95;1.42;;;4.80;99.90;;;;;;4963385;29;20181;-90
2020/12/28 07:52:10;;;;;;;4.15;1.70;;;4.80;99.90;;;;;;4963359;29;20580;-89
2020/12/28 07:54:55;;;;;;;2.85;1.77;;;4.80;99.90;;;;;;4933228;29;20231;-89
2020/12/28 07:57:57;;;;;;;3.63;1.70;;;4.80;99.90;;;;;;4977523;28;20209;-89
2020/12/28 08:00:30;;;;;;;2.67;1.80;;;4.80;99.90;;;;;;4955755;29;20223;-89
2020/12/28 08:02:56;;;;;;;2.00;1.60;;;4.80;99.90;;;;;;4920953;29;20284;-89
2020/12/28 08:05:23;;;;;;;1.90;1.73;;;4.80;99.90;;;;;;4958583;28;20263;-89
2020/12/28 08:07:51;;;;;;;2.80;1.65;;;4.80;99.90;;;;;;4940343;29;20420;-89
2020/12/28 08:10:17;;;;;;;4.33;2.03;;;4.50;99.90;;;;;;4939614;29;20188;-90
2020/12/28 08:12:58;;;;;;;4.00;2.20;;;4.70;99.90;;;;;;4956016;28;20457;-90
2020/12/28 08:15:35;;;;;;;2.22;2.03;;;4.70;99.90;;;;;;4955642;29;20481;-93
2020/12/28 08:18:11;;;;;;;2.80;1.92;;;4.60;99.90;;;;;;4939552;29;20228;-93
2020/12/28 08:20:39;;;;;;;3.90;1.90;;;4.70;99.90;;;;;;4955930;29;20226;-92
2020/12/28 08:23:07;;;;;;;2.10;1.90;;;4.70;99.90;;;;;;4940586;29;20184;-92
2020/12/28 08:25:35;;;;;;;2.53;2.22;;;4.60;99.90;;;;;;4955836;28;20204;-91
2020/12/28 08:28:02;;;;;;;3.20;2.55;;;4.60;99.90;;;;;;4955605;29;20669;-91
2020/12/28 08:30:32;;;;;;;5.00;2.70;;;4.60;99.90;;;;;;4940013;29;20192;-92
2020/12/28 08:33:01;;;;;;;2.50;2.30;;;4.60;99.90;;;;;;4941794;29;20181;-92
2020/12/28 08:35:27;;;;;;;3.10;2.80;;;4.60;99.90;;;;;;4972240;28;20211;-92
2020/12/28 08:38:32;;;;;;;2.53;2.10;;;4.60;99.90;;;;;;4940580;29;20289;-92
2020/12/28 08:40:58;;;;;;;5.00;2.35;;;4.70;99.90;;;;;;4940712;29;20180;-92
2020/12/28 08:43:25;;;;;;;3.88;1.75;;;4.60;99.90;;;;;;4941506;29;20197;-91
2020/12/28 08:46:04;;;;;;;3.28;2.30;;;4.60;99.90;;;;;;4958032;29;20188;-91
2020/12/28 08:48:32;;;;;;;2.92;2.28;;;4.60;99.90;;;;;;4963030;28;20200;-91
2020/12/28 08:51:03;;;;;;;3.42;2.70;;;4.60;99.90;;;;;;4938536;29;20492;-91
2020/12/28 08:53:36;;;;;;;3.17;1.83;;;4.60;99.90;;;;;;4937499;29;20221;-90
2020/12/28 08:56:04;;;;;;;2.78;2.00;;;4.70;99.90;;;;;;4928545;29;20227;-89
2020/12/28 08:58:30;;;;;;;9.30;2.35;;;4.60;99.90;;;;;;4939023;29;20240;-89
2020/12/28 09:00:56;;;;;;;3.17;2.00;;;4.80;99.90;;;;;;4947862;29;20184;-89
2020/12/28 09:03:24;;;;;;;2.50;1.85;;;4.90;99.90;;;;;;4957617;29;20929;-88
2020/12/28 09:05:50;;;;;;;2.53;1.80;;;5.00;99.90;;;;;;4958192;28;20260;-92
2020/12/28 09:08:16;;;;;;;3.30;1.80;;;5.10;99.90;;;;;;4970440;28;20256;-90
2020/12/28 09:10:42;;;;;;;4.07;1.50;;;5.40;99.90;;;;;;4952454;28;20448;-82
2020/12/28 09:13:09;;;;;;;4.33;1.60;;;5.40;99.90;;;;;;4944995;28;20949;-85
2020/12/28 09:15:35;;;;;;;1.88;1.52;;;5.50;99.90;;;;;;4950349;28;20432;-86
2020/12/28 09:18:06;;;;;;;1.95;1.60;;;5.50;99.90;;;;;;4938069;29;20217;-87
2020/12/28 09:20:34;;;;;;;4.25;1.83;;;5.40;99.90;;;;;;4954742;28;20196;-89
2020/12/28 09:23:00;;;;;;;6.85;1.77;;;5.50;99.90;;;;;;4955886;29;20656;-88
2020/12/28 09:25:26;;;;;;;3.80;2.03;;;5.30;99.90;;;;;;4943955;28;20188;-89
2020/12/28 09:27:51;;;;;;;3.60;1.70;;;5.40;99.90;;;;;;4963420;28;20889;-86
2020/12/28 09:30:20;;;;;;;1.97;1.67;;;5.40;99.90;;;;;;4952361;28;20471;-88
2020/12/28 09:32:45;;;;;;;1.77;1.67;;;5.50;99.90;;;;;;4954441;28;20431;-80
2020/12/28 09:35:17;;;;;;;1.90;1.65;;;5.50;99.90;;;;;;4925140;29;20560;-86
2020/12/28 09:37:45;;;;;;;2.15;1.73;;;5.50;99.90;;;;;;4947289;28;20211;-87
2020/12/28 09:40:14;;;;;;;3.63;1.95;;;5.60;99.90;;;;;;4938205;29;20208;-89
2020/12/28 09:42:42;;;;;;;4.85;1.60;;;5.60;99.90;;;;;;4953590;28;20176;-87
2020/12/28 09:45:36;;;;;;;3.63;1.90;;;5.60;99.90;;;;;;4943152;29;20192;-82
2020/12/28 09:47:54;;;;;;;4.03;1.55;;;5.30;99.90;;;;;;4931174;29;20530;-82
2020/12/28 09:50:19;;;;;;;2.87;1.83;;;5.70;99.90;;;;;;4935776;29;20180;-86
2020/12/28 09:52:49;;;;;;;2.67;1.75;;;5.50;99.90;;;;;;4952236;28;20444;-83
2020/12/28 09:55:15;;;;;;;1.70;1.58;;;5.70;99.90;;;;;;4939565;28;20216;-84
2020/12/28 09:57:43;;;;;;;2.80;1.80;;;5.60;99.90;;;;;;4944938;28;20184;-84
2020/12/28 10:00:12;;;;;;;2.08;1.50;;;5.70;99.90;;;;;;4946281;29;20191;-89
2020/12/28 10:02:41;;;;;;;5.32;2.03;;;5.70;99.90;;;;;;4968104;28;20272;-85
2020/12/28 10:05:12;;;;;;;1.60;1.40;;;5.70;99.90;;;;;;4960119;28;20181;-88
2020/12/28 10:07:43;;;;;;;1.80;1.70;;;5.70;99.90;;;;;;4920248;29;20203;-86
2020/12/28 10:10:09;;;;;;;2.25;1.73;;;5.70;99.90;;;;;;4944699;29;20800;-85
2020/12/28 10:12:38;;;;;;;2.33;1.90;;;5.70;99.90;;;;;;4934856;29;20208;-84
2020/12/28 10:15:09;;;;;;;3.08;2.22;;;5.70;99.90;;;;;;4949271;29;20216;-84
2020/12/28 10:17:36;;;;;;;3.42;3.05;;;5.70;99.90;;;;;;4935064;29;20295;-84
2020/12/28 10:20:09;;;;;;;2.60;1.85;;;5.80;99.90;;;;;;4915930;29;20678;-83
2020/12/28 10:22:42;;;;;;;2.30;1.42;;;5.80;99.90;;;;;;4922211;29;20280;-80
2020/12/28 10:25:08;;;;;;;1.85;1.23;;;5.70;99.90;;;;;;4935146;29;20203;-81
2020/12/28 10:27:36;;;;;;;1.77;1.67;;;5.70;99.90;;;;;;4940427;28;20523;-79
2020/12/28 10:30:07;;;;;;;2.28;1.90;;;5.60;99.90;;;;;;4934117;28;20759;-82
2020/12/28 10:32:38;;;;;;;2.40;1.30;;;5.60;99.90;;;;;;4965069;28;20188;-81
2020/12/28 10:35:06;;;;;;;2.22;1.45;;;5.50;99.90;;;;;;4933373;29;20217;-80
2020/12/28 10:37:34;;;;;;;4.82;2.55;;;5.40;99.90;;;;;;4934467;29;20192;-80
2020/12/28 10:40:06;;;;;;;3.50;1.95;;;5.40;99.90;;;;;;4946535;29;20192;-81
2020/12/28 10:42:44;;;;;;;1.70;1.50;;;5.40;99.90;;;;;;4936075;29;20682;-80
2020/12/28 10:45:15;;;;;;;3.50;1.90;;;5.30;99.90;;;;;;4960425;28;20623;-81
2020/12/28 10:47:45;;;;;;;2.17;1.40;;;5.30;99.90;;;;;;4918879;29;20231;-86
2020/12/28 10:50:18;;;;;;;1.50;1.40;;;5.20;99.90;;;;;;4947892;29;20196;-82
2020/12/28 10:52:49;;;;;;;2.47;1.50;;;5.20;99.90;;;;;;4938017;29;20196;-83
2020/12/28 10:55:17;;;;;;;2.88;1.60;;;5.30;99.90;;;;;;4948875;29;20669;-81
2020/12/28 10:57:46;;;;;;;2.05;1.55;;;5.40;99.90;;;;;;4944950;29;20215;-82
2020/12/28 11:00:14;;;;;;;3.28;1.67;;;5.50;99.90;;;;;;4943354;29;20197;-82
2020/12/28 11:02:50;;;;;;;2.17;1.90;;;5.50;99.90;;;;;;4928448;29;20232;-84
2020/12/28 11:05:18;;;;;;;3.92;1.95;;;5.50;99.90;;;;;;4934547;29;20197;-87
2020/12/28 11:07:49;;;;;;;3.28;2.03;;;5.60;99.90;;;;;;4922531;29;20677;-81
2020/12/28 11:10:15;;;;;;;1.70;1.60;;;5.60;99.90;;;;;;4944419;28;20192;-82
2020/12/28 11:12:42;;;;;;;2.27;2.00;;;5.70;99.90;;;;;;4928410;29;20437;-82
2020/12/28 11:15:08;;;;;;;3.83;1.73;;;5.70;99.90;;;;;;4932108;29;20551;-80
2020/12/28 11:17:34;;;;;;;5.18;2.17;;;5.80;99.90;;;;;;4962413;28;20225;-79
2020/12/28 11:20:05;;;;;;;2.35;1.70;;;5.80;99.90;;;;;;4942155;29;20678;-79
2020/12/28 11:22:33;;;;;;;1.65;1.55;;;5.90;99.90;;;;;;4936799;29;20177;-80
2020/12/28 11:25:06;;;;;;;4.72;1.50;;;5.90;99.90;;;;;;4937982;29;20200;-80
2020/12/28 11:27:36;;;;;;;2.13;1.45;;;5.90;99.90;;;;;;4954126;29;20780;-79
2020/12/28 11:30:05;;;;;;;1.98;1.60;;;5.90;99.90;;;;;;4921509;29;20235;-81
2020/12/28 11:32:34;;;;;;;2.45;1.70;;;5.90;99.90;;;;;;4936668;29;20224;-83
2020/12/28 11:35:00;;;;;;;2.85;1.88;;;6.00;99.90;;;;;;4952528;29;20339;-80
2020/12/28 11:37:26;;;;;;;1.83;1.73;;;5.90;99.90;;;;;;4954112;29;20634;-81
2020/12/28 11:39:56;;;;;;;1.65;1.50;;;6.00;99.90;;;;;;4922255;29;20433;-80
2020/12/28 11:42:22;;;;;;;2.15;1.42;;;5.90;99.90;;;;;;4935600;29;20219;-80
2020/12/28 11:44:48;;;;;;;2.50;2.03;;;5.90;99.90;;;;;;4920657;29;20220;-84
2020/12/28 11:47:14;;;;;;;2.50;1.40;;;5.60;99.90;;;;;;4952935;28;21165;-81
2020/12/28 11:49:45;;;;;;;2.05;1.30;;;5.90;99.90;;;;;;4960033;28;20437;-80
2020/12/28 11:52:17;;;;;;;1.30;1.20;;;5.90;99.90;;;;;;4935341;29;20176;-81
2020/12/28 11:54:50;;;;;;;1.73;1.63;;;5.80;99.90;;;;;;4931602;29;20247;-82
2020/12/28 11:57:21;;;;;;;2.25;1.40;;;5.80;99.90;;;;;;4935703;29;20199;-81
2020/12/28 11:59:50;;;;;;;2.20;2.00;;;5.90;99.90;;;;;;4936294;28;20560;-82
2020/12/28 12:02:24;;;;;;;1.80;1.63;;;5.90;99.90;;;;;;4939960;29;20193;-81
2020/12/28 12:04:52;;;;;;;1.30;1.20;;;5.90;99.90;;;;;;4937027;29;20212;-81
2020/12/28 12:07:24;;;;;;;2.83;1.30;;;5.90;99.90;;;;;;4960580;28;20192;-81
2020/12/28 12:09:55;;;;;;;4.20;2.17;;;6.10;99.90;;;;;;4958552;28;20308;-82
2020/12/28 12:12:26;;;;;;;2.42;1.92;;;6.10;99.90;;;;;;4952596;28;20192;-83
2020/12/28 12:14:54;;;;;;;2.10;1.65;;;6.20;99.90;;;;;;4934417;29;20196;-82
2020/12/28 12:17:29;;;;;;;2.47;1.60;;;6.20;99.90;;;;;;4966964;28;20228;-80
2020/12/28 12:20:00;;;;;;;2.20;1.63;;;6.30;99.90;;;;;;4960074;28;20224;-82
2020/12/28 12:22:33;;;;;;;1.88;1.50;;;6.40;99.90;;;;;;4969013;28;20191;-79
2020/12/28 12:24:59;;;;;;;4.22;1.70;;;6.50;99.90;;;;;;4934068;29;20192;-83
2020/12/28 12:27:27;;;;;;;3.05;1.85;;;6.70;99.90;;;;;;4965381;28;20176;-82
2020/12/28 12:29:56;;;;;;;1.75;1.65;;;6.70;99.90;;;;;;4960817;28;20184;-82
2020/12/28 12:32:29;;;;;;;2.03;1.67;;;6.70;99.90;;;;;;4962822;28;20665;-82
2020/12/28 12:34:57;;;;;;;1.60;1.50;;;6.70;99.90;;;;;;4944933;29;20717;-83
2020/12/28 12:37:26;;;;;;;2.47;1.60;;;6.70;99.90;;;;;;4958361;28;20173;-84
2020/12/28 12:39:51;;;;;;;1.60;1.50;;;6.70;99.90;;;;;;4952442;28;20630;-82
2020/12/28 12:42:22;;;;;;;1.60;1.50;;;6.80;99.90;;;;;;4950542;29;20511;-85
2020/12/28 12:44:48;;;;;;;2.03;1.80;;;6.80;99.90;;;;;;4915819;29;20189;-82
2020/12/28 12:47:19;;;;;;;2.30;1.58;;;6.70;99.90;;;;;;4944115;28;20224;-83
2020/12/28 12:49:47;;;;;;;1.73;1.50;;;6.70;99.90;;;;;;4936548;29;20522;-84
2020/12/28 12:52:23;;;;;;;1.98;1.80;;;6.60;99.90;;;;;;4935043;29;20208;-83
2020/12/28 12:54:54;;;;;;;2.75;2.08;;;6.50;99.90;;;;;;4934807;29;20208;-82
2020/12/28 12:57:20;;;;;;;2.13;1.60;;;6.50;99.90;;;;;;4932635;29;20193;-82
2020/12/28 13:00:06;;;;;;;2.97;2.23;;;6.40;99.90;;;;;;4931270;29;20196;-83
2020/12/28 13:02:40;;;;;;;2.33;1.98;;;6.50;99.90;;;;;;4947276;29;20522;-82
2020/12/28 13:05:13;;;;;;;2.20;2.00;;;6.50;99.90;;;;;;4953535;28;20174;-83
2020/12/28 13:07:44;;;;;;;2.45;2.25;;;6.50;99.90;;;;;;4936834;29;20197;-83
2020/12/28 13:10:13;;;;;;;2.45;2.25;;;6.50;99.90;;;;;;4943509;28;20252;-83
2020/12/28 13:12:43;;;;;;;2.75;2.33;;;6.50;99.90;;;;;;4926805;29;20540;-82
2020/12/28 13:15:16;;;;;;;2.17;2.00;;;6.50;99.90;;;;;;4942304;28;20216;-82
2020/12/28 13:17:42;;;;;;;2.92;2.60;;;6.50;99.90;;;;;;4934395;29;20220;-82
2020/12/28 13:20:14;;;;;;;2.65;1.90;;;6.60;99.90;;;;;;4934815;29;20188;-83
2020/12/28 13:22:42;;;;;;;2.30;2.20;;;6.60;99.90;;;;;;4939363;29;20242;-82